Time;durP1;ratioP1;P1;durP2;ratioP2;P2;SDS_P1;SDS_P2;PMS_P1;PMS_P2;Temp;Humidity;BMP_temperature;BMP_pressure;BME280_temperature;BME280_humidity;BME280_pressure;Samples;Min_cycle;Max_cycle;Signal;HPM_P1;HPM_P2
2022/05/27 00:01:16;;;;;;;14.27;6.18;;;;;;;12.28;71.91;100901.31;5035759;28;20092;-72
2022/05/27 00:03:42;;;;;;;12.35;6.28;;;;;;;12.22;72.56;100900.16;5035064;28;20042;-71
2022/05/27 00:06:09;;;;;;;16.70;7.47;;;;;;;12.11;73.69;100905.84;5035348;28;20077;-71
2022/05/27 00:08:36;;;;;;;13.93;7.10;;;;;;;11.99;74.90;100896.41;5035535;28;20504;-72
2022/05/27 00:11:02;;;;;;;13.98;7.78;;;;;;;11.95;75.13;100887.84;5034770;28;20405;-71
2022/05/27 00:13:29;;;;;;;13.68;8.02;;;;;;;11.81;76.59;100886.63;5034969;28;20140;-72
2022/05/27 00:15:56;;;;;;;16.85;8.07;;;;;;;11.77;77.27;100873.69;5035442;28;20068;-71
2022/05/27 00:18:23;;;;;;;13.95;8.57;;;;;;;11.69;78.13;100864.59;5035146;28;20052;-70
2022/05/27 00:20:49;;;;;;;17.88;8.88;;;;;;;11.55;79.07;100869.72;5035026;28;20417;-71
2022/05/27 00:23:17;;;;;;;15.02;9.20;;;;;;;11.43;79.54;100861.97;5034677;28;20136;-72
2022/05/27 00:25:44;;;;;;;15.65;9.82;;;;;;;11.34;80.32;100854.03;5034799;28;20115;-72
2022/05/27 00:28:10;;;;;;;16.33;10.48;;;;;;;11.28;81.12;100847.47;5034998;28;20576;-71
2022/05/27 00:30:37;;;;;;;15.85;10.05;;;;;;;11.26;81.11;100840.56;5034471;28;20099;-71
2022/05/27 00:33:04;;;;;;;14.93;9.38;;;;;;;11.17;81.82;100837.88;5035009;28;20136;-71
2022/05/27 00:35:31;;;;;;;12.90;9.80;;;;;;;11.18;82.22;100827.97;5034732;28;20076;-72
2022/05/27 00:37:57;;;;;;;14.93;9.05;;;;;;;11.17;82.37;100823.56;5035387;28;20136;-71
2022/05/27 00:40:26;;;;;;;11.50;8.30;;;;;;;11.17;82.65;100828.94;5034952;28;20100;-71
2022/05/27 00:42:52;;;;;;;12.32;8.43;;;;;;;11.04;83.54;100815.16;5034347;28;20232;-71
2022/05/27 00:45:22;;;;;;;13.95;8.57;;;;;;;11.14;83.57;100816.69;5034523;28;20092;-71
2022/05/27 00:47:53;;;;;;;12.93;9.40;;;;;;;11.14;83.88;100811.34;5034667;28;20464;-71
2022/05/27 00:50:25;;;;;;;15.97;9.03;;;;;;;11.06;84.15;100816.66;5034682;28;20049;-71
2022/05/27 00:52:52;;;;;;;12.35;8.50;;;;;;;11.05;84.53;100814.13;5034445;28;20046;-71
2022/05/27 00:55:26;;;;;;;15.13;9.05;;;;;;;11.10;84.88;100801.06;5033953;28;20140;-71
2022/05/27 00:58:02;;;;;;;12.27;8.75;;;;;;;11.08;84.99;100803.09;5034690;28;20053;-72
2022/05/27 01:00:28;;;;;;;14.23;9.98;;;;;;;11.01;85.71;100802.03;5034300;28;20516;-72
2022/05/27 01:02:55;;;;;;;10.98;8.88;;;;;;;10.99;85.30;100797.66;5034244;28;20512;-71
2022/05/27 01:09:09;;;;;;;14.48;11.23;;;;;;;10.97;85.72;100796.16;5033962;28;20128;-71
2022/05/27 01:11:48;;;;;;;17.08;11.60;;;;;;;11.03;85.36;100789.28;5033663;28;20189;-71
2022/05/27 01:14:32;;;;;;;20.40;11.77;;;;;;;11.02;85.77;100777.72;5034244;28;20045;-71
2022/05/27 01:17:12;;;;;;;17.27;10.57;;;;;;;11.06;85.44;100783.59;5034134;28;20538;-71
2022/05/27 01:23:22;;;;;;;19.48;10.75;;;;;;;11.02;86.06;100782.25;5033928;28;20054;-71
2022/05/27 01:26:03;;;;;;;15.52;11.10;;;;;;;11.11;85.52;100779.44;5034172;28;20140;-71
2022/05/27 01:28:49;;;;;;;15.77;11.18;;;;;;;10.97;85.71;100780.06;5034738;28;20140;-71
2022/05/27 01:31:46;;;;;;;19.27;11.50;;;;;;;11.07;85.37;100774.56;5034011;28;20053;-71
2022/05/27 01:34:37;;;;;;;17.40;12.15;;;;;;;11.03;86.08;100774.00;5034260;28;20512;-71
2022/05/27 01:37:21;;;;;;;16.35;11.38;;;;;;;11.09;85.72;100772.53;5033990;28;20100;-71
2022/05/27 01:40:04;;;;;;;14.25;10.98;;;;;;;11.05;85.67;100774.69;5034091;28;20104;-71
2022/05/27 01:42:51;;;;;;;18.27;12.63;;;;;;;11.05;86.12;100772.03;5033735;28;20059;-71
2022/05/27 01:45:42;;;;;;;17.30;11.85;;;;;;;11.03;86.14;100757.91;5033569;28;20050;-71
2022/05/27 01:48:18;;;;;;;17.85;13.07;;;;;;;10.88;86.17;100762.22;5033726;28;20049;-71
2022/05/27 01:50:57;;;;;;;17.38;13.40;;;;;;;10.85;86.58;100763.38;5033748;28;20084;-71
2022/05/27 01:53:30;;;;;;;17.13;13.75;;;;;;;10.92;86.94;100745.63;5034385;28;20141;-71
2022/05/27 01:56:31;;;;;;;18.25;13.68;;;;;;;10.98;86.95;100744.97;5033961;28;20561;-71
2022/05/27 01:59:08;;;;;;;18.13;13.90;;;;;;;10.97;86.93;100750.53;5033947;28;20408;-71
2022/05/27 02:01:41;;;;;;;15.77;12.68;;;;;;;10.96;86.74;100751.50;5034405;28;20148;-71
2022/05/27 02:04:17;;;;;;;16.60;13.25;;;;;;;10.92;86.98;100751.00;5034207;28;20071;-71
2022/05/27 02:06:49;;;;;;;18.60;13.63;;;;;;;10.90;87.06;100747.66;5033699;28;20099;-71
2022/05/27 02:09:20;;;;;;;18.65;13.90;;;;;;;11.01;86.59;100751.03;5036780;28;20516;-71
2022/05/27 02:11:51;;;;;;;17.08;13.90;;;;;;;10.96;86.71;100747.00;5037628;28;20541;-70
2022/05/27 02:14:27;;;;;;;18.75;13.82;;;;;;;10.92;87.14;100745.63;5038074;28;20533;-70
2022/05/27 02:17:01;;;;;;;22.33;14.75;;;;;;;10.87;87.28;100737.22;5036932;28;20136;-70
2022/05/27 02:19:54;;;;;;;21.50;13.25;;;;;;;11.05;86.87;100736.28;5037120;28;20103;-69
2022/05/27 02:22:43;;;;;;;18.83;15.05;;;;;;;11.06;86.79;100735.28;5037314;28;20487;-70
2022/05/27 02:25:21;;;;;;;18.70;14.02;;;;;;;11.04;86.45;100738.13;5036911;28;20545;-70
2022/05/27 02:27:53;;;;;;;18.45;13.65;;;;;;;10.99;87.01;100737.75;5037216;28;20135;-70
2022/05/27 02:30:24;;;;;;;19.98;13.00;;;;;;;11.03;86.52;100735.59;5037595;28;20525;-70
2022/05/27 02:35:48;;;;;;;18.52;11.45;;;;;;;11.02;85.60;100748.19;5036838;28;20136;-70
2022/05/27 02:38:15;;;;;;;14.95;10.73;;;;;;;11.05;85.22;100749.72;5036975;28;20111;-70
2022/05/27 02:40:58;;;;;;;12.30;9.75;;;;;;;10.96;85.28;100755.06;5036782;28;20084;-71
2022/05/27 02:43:58;;;;;;;13.93;9.68;;;;;;;11.01;84.64;100751.03;5037427;28;20045;-70
2022/05/27 02:46:35;;;;;;;12.75;9.20;;;;;;;10.97;85.17;100750.53;5037339;28;20132;-70
2022/05/27 02:49:16;;;;;;;13.93;9.00;;;;;;;10.98;85.03;100758.41;5036635;28;20136;-70
2022/05/27 02:52:21;;;;;;;12.30;9.25;;;;;;;10.99;85.11;100743.13;5037358;28;20083;-71
2022/05/27 02:54:56;;;;;;;17.35;9.40;;;;;;;10.99;85.24;100743.97;5032988;28;20045;-71
2022/05/27 02:57:30;;;;;;;11.25;9.32;;;;;;;11.06;84.79;100751.38;5036644;28;20053;-71
2022/05/27 02:59:58;;;;;;;14.18;9.63;;;;;;;11.07;85.33;100753.91;5036222;28;20060;-70
2022/05/27 03:02:24;;;;;;;13.50;9.65;;;;;;;11.08;85.15;100747.53;5036505;28;20125;-71
2022/05/27 03:04:58;;;;;;;15.02;10.32;;;;;;;11.09;85.20;100748.38;5036259;28;20132;-70
2022/05/27 03:07:39;;;;;;;14.05;11.45;;;;;;;11.05;85.15;100749.72;5036186;28;20136;-70
2022/05/27 03:10:43;;;;;;;11.88;10.25;;;;;;;11.05;85.57;100747.03;5035875;28;20081;-71
2022/05/27 03:13:42;;;;;;;14.52;10.50;;;;;;;11.01;85.33;100737.63;5036269;28;20544;-71
2022/05/27 03:16:36;;;;;;;16.52;10.63;;;;;;;10.95;85.21;100734.56;5036916;28;20056;-71
2022/05/27 03:19:16;;;;;;;18.17;11.23;;;;;;;11.06;84.90;100737.97;5035668;28;20502;-71
2022/05/27 03:22:11;;;;;;;18.65;10.40;;;;;;;11.07;84.58;100734.28;5035947;28;20049;-71
2022/05/27 03:24:53;;;;;;;16.80;11.15;;;;;;;11.02;84.92;100740.13;5035296;28;20457;-71
2022/05/27 03:27:32;;;;;;;14.00;10.95;;;;;;;11.15;84.68;100737.00;5035732;28;20081;-71
2022/05/27 03:30:21;;;;;;;16.00;11.00;;;;;;;11.10;85.16;100731.25;5036518;28;20128;-71
2022/05/27 03:32:55;;;;;;;21.90;11.90;;;;;;;11.06;85.09;100727.22;5035582;28;20053;-71
2022/05/27 03:35:39;;;;;;;20.40;11.88;;;;;;;11.01;85.39;100733.09;5035366;28;20137;-71
2022/05/27 03:38:38;;;;;;;20.40;11.70;;;;;;;11.06;85.09;100735.28;5035301;28;20477;-71
2022/05/27 03:41:15;;;;;;;16.25;11.63;;;;;;;11.12;84.78;100743.50;5035506;28;20136;-71
2022/05/27 03:43:43;;;;;;;19.58;11.35;;;;;;;11.07;85.03;100742.34;5035573;28;20474;-71
2022/05/27 03:46:10;;;;;;;17.10;11.43;;;;;;;11.07;85.24;100732.44;5036145;28;20057;-71
2022/05/27 03:48:37;;;;;;;17.27;11.75;;;;;;;11.12;84.82;100740.00;5035153;28;20091;-70
2022/05/27 03:51:17;;;;;;;17.48;11.73;;;;;;;11.10;85.01;100734.81;5035278;28;20140;-71
2022/05/27 03:56:40;;;;;;;19.85;12.50;;;;;;;11.07;85.07;100736.97;5035442;28;20523;-71
2022/05/27 03:59:09;;;;;;;25.17;17.10;;;;;;;11.07;84.98;100743.19;5035386;28;20057;-71
2022/05/27 04:01:38;;;;;;;18.50;12.23;;;;;;;11.08;84.92;100749.38;5034961;28;20053;-71
2022/05/27 04:04:09;;;;;;;19.17;11.65;;;;;;;11.08;84.54;100742.16;5035039;28;20045;-71
2022/05/27 04:06:35;;;;;;;20.30;11.45;;;;;;;11.02;84.96;100750.03;5035007;28;20103;-71
2022/05/27 04:09:04;;;;;;;15.00;10.50;;;;;;;11.01;85.00;100743.00;5035172;28;20056;-71
2022/05/27 04:11:30;;;;;;;18.67;10.63;;;;;;;11.04;84.86;100742.66;5034972;28;20073;-71
2022/05/27 04:13:57;;;;;;;17.88;10.30;;;;;;;11.07;84.71;100737.81;5035516;28;20128;-71
2022/05/27 04:16:24;;;;;;;14.95;11.07;;;;;;;11.06;84.65;100746.00;5035347;28;20062;-69
2022/05/27 04:18:51;;;;;;;17.70;10.40;;;;;;;11.10;84.52;100744.66;5035250;28;20060;-70
2022/05/27 04:21:18;;;;;;;14.90;9.90;;;;;;;11.09;84.30;100735.78;5035007;28;20053;-70
2022/05/27 04:23:46;;;;;;;15.18;9.88;;;;;;;11.10;84.29;100731.25;5034450;28;20501;-71
2022/05/27 04:26:12;;;;;;;18.10;10.82;;;;;;;11.08;84.31;100734.13;5034786;28;20151;-71
2022/05/27 04:28:39;;;;;;;16.83;10.95;;;;;;;10.95;85.18;100731.03;5035041;28;20462;-71
2022/05/27 04:31:05;;;;;;;18.10;10.75;;;;;;;11.05;84.96;100723.69;5034251;28;20057;-71
2022/05/27 04:33:32;;;;;;;16.63;10.93;;;;;;;11.13;84.91;100722.88;5034688;28;20139;-70
2022/05/27 04:36:00;;;;;;;17.58;10.43;;;;;;;11.14;84.81;100729.94;5034774;28;20165;-71
2022/05/27 04:38:27;;;;;;;17.05;10.32;;;;;;;11.13;84.72;100730.94;5034726;28;20140;-70
2022/05/27 04:40:54;;;;;;;13.43;10.15;;;;;;;11.07;85.02;100729.75;5034408;28;20137;-70
2022/05/27 04:43:21;;;;;;;16.02;11.02;;;;;;;11.06;85.15;100729.91;5034258;28;20172;-70
2022/05/27 04:45:48;;;;;;;17.13;10.30;;;;;;;11.11;84.79;100730.28;5034825;28;20057;-71
2022/05/27 04:48:17;;;;;;;18.45;10.27;;;;;;;11.11;84.80;100739.16;5034722;28;20481;-70
2022/05/27 04:50:43;;;;;;;17.42;10.13;;;;;;;11.15;84.79;100745.88;5034947;28;20077;-71
2022/05/27 04:53:10;;;;;;;13.82;9.95;;;;;;;11.08;84.73;100744.00;5035193;28;20137;-70
2022/05/27 04:55:38;;;;;;;16.15;10.00;;;;;;;11.19;84.50;100746.38;5035427;28;20084;-71
2022/05/27 04:58:06;;;;;;;22.02;10.43;;;;;;;11.19;84.14;100741.84;5034665;28;20390;-70
2022/05/27 05:00:39;;;;;;;13.65;9.75;;;;;;;11.12;84.71;100748.88;5035343;28;20171;-70
2022/05/27 05:03:06;;;;;;;17.67;10.13;;;;;;;11.17;84.35;100753.75;5034985;28;20057;-68
2022/05/27 05:05:34;;;;;;;17.38;9.45;;;;;;;11.23;83.83;100745.06;5034529;28;20060;-69
2022/05/27 05:08:24;;;;;;;14.57;9.30;;;;;;;11.12;84.51;100745.38;5034669;28;20132;-68
2022/05/27 05:10:50;;;;;;;16.73;9.90;;;;;;;11.19;84.37;100751.75;5034529;28;20132;-68
2022/05/27 05:13:16;;;;;;;20.20;9.27;;;;;;;11.19;84.61;100759.81;5034123;28;20132;-68
2022/05/27 05:15:43;;;;;;;19.23;10.65;;;;;;;11.15;84.92;100761.16;5034757;28;20135;-68
2022/05/27 05:18:10;;;;;;;16.90;9.95;;;;;;;11.13;84.62;100763.97;5034645;28;20381;-68
2022/05/27 05:20:36;;;;;;;17.33;10.43;;;;;;;11.19;84.61;100770.56;5034714;28;20053;-68
2022/05/27 05:23:03;;;;;;;19.23;10.05;;;;;;;11.14;85.05;100773.75;5034126;28;20068;-68
2022/05/27 05:25:29;;;;;;;18.85;9.00;;;;;;;11.15;84.74;100767.34;5033900;28;20132;-68
2022/05/27 05:27:56;;;;;;;16.30;9.18;;;;;;;11.14;85.00;100767.53;5034247;28;20113;-68
2022/05/27 05:30:25;;;;;;;17.25;8.65;;;;;;;11.16;84.66;100776.25;5033924;28;20144;-68
2022/05/27 05:32:52;;;;;;;16.17;9.35;;;;;;;11.16;84.39;100770.88;5034188;28;20133;-68
2022/05/27 05:35:18;;;;;;;15.55;8.00;;;;;;;11.05;83.94;100773.88;5034284;28;20136;-67
2022/05/27 05:37:45;;;;;;;14.68;7.32;;;;;;;11.04;83.78;100769.50;5034118;28;20138;-68
2022/05/27 05:40:13;;;;;;;14.75;7.22;;;;;;;10.89;83.33;100770.09;5034701;28;20128;-69
2022/05/27 05:42:40;;;;;;;10.98;5.63;;;;;;;11.06;81.85;100771.00;5037032;28;20057;-68
2022/05/27 05:45:09;;;;;;;17.92;5.38;;;;;;;10.93;81.84;100765.28;5038782;28;20458;-68
2022/05/27 05:47:36;;;;;;;10.35;5.32;;;;;;;11.01;81.63;100765.31;5038656;28;20046;-68
2022/05/27 05:50:02;;;;;;;14.38;5.20;;;;;;;11.04;81.16;100769.50;5038540;28;20136;-69
2022/05/27 05:52:29;;;;;;;7.40;4.55;;;;;;;11.00;81.23;100755.56;5037916;28;20460;-69
2022/05/27 05:54:55;;;;;;;14.10;5.88;;;;;;;10.90;81.23;100746.81;5038423;28;20482;-67
2022/05/27 05:57:23;;;;;;;10.23;4.65;;;;;;;10.80;80.45;100756.81;5038656;28;20481;-68
2022/05/27 05:59:49;;;;;;;22.92;4.38;;;;;;;10.91;79.96;100738.59;5038309;28;20076;-68
2022/05/27 06:02:16;;;;;;;22.55;4.57;;;;;;;10.98;80.48;100749.50;5038181;28;20089;-68
2022/05/27 06:04:42;;;;;;;9.13;4.18;;;;;;;11.02;80.47;100750.03;5037952;28;20145;-68
2022/05/27 06:07:11;;;;;;;9.75;4.15;;;;;;;10.98;80.32;100752.19;5037670;28;20060;-68
2022/05/27 06:09:38;;;;;;;11.30;4.05;;;;;;;10.98;79.94;100742.28;5038406;28;20092;-69
2022/05/27 06:12:05;;;;;;;20.02;4.47;;;;;;;10.93;80.29;100739.28;5037433;28;20124;-69
2022/05/27 06:14:31;;;;;;;10.45;3.70;;;;;;;10.95;81.00;100728.34;5037522;28;20133;-68
2022/05/27 06:16:57;;;;;;;8.52;4.07;;;;;;;10.81;81.73;100727.13;5037311;28;20140;-69
2022/05/27 06:19:24;;;;;;;7.63;3.38;;;;;;;10.53;81.35;100739.09;5037531;28;20088;-69
2022/05/27 06:21:50;;;;;;;5.97;2.83;;;;;;;10.60;79.83;100743.63;5037337;28;20053;-68
2022/05/27 06:24:17;;;;;;;7.88;2.45;;;;;;;10.56;78.67;100754.84;5038358;28;20089;-69
2022/05/27 06:26:44;;;;;;;9.00;2.53;;;;;;;10.46;78.39;100763.81;5037318;28;20128;-69
2022/05/27 06:34:42;;;;;;;9.40;2.90;;;;;;;10.48;78.16;100753.78;5037477;28;20041;-69
2022/05/27 06:37:14;;;;;;;9.45;2.70;;;;;;;10.50;78.04;100759.00;5037309;28;20139;-68
2022/05/27 06:39:41;;;;;;;8.15;1.90;;;;;;;10.61;78.80;100756.03;5037305;28;20046;-68
2022/05/27 06:42:10;;;;;;;11.48;3.00;;;;;;;10.74;78.04;100763.66;5037395;28;20467;-68
2022/05/27 06:44:57;;;;;;;5.35;2.35;;;;;;;10.93;77.42;100768.78;5037083;28;20148;-69
2022/05/27 06:47:24;;;;;;;7.05;2.65;;;;;;;10.95;77.62;100769.47;5036636;28;20076;-68
2022/05/27 06:49:51;;;;;;;12.40;2.60;;;;;;;11.17;78.34;100770.75;5036431;28;20145;-68
2022/05/27 06:52:41;;;;;;;9.30;3.17;;;;;;;11.48;76.70;100769.28;5036662;28;20144;-67
2022/05/27 06:55:14;;;;;;;6.13;2.20;;;;;;;11.55;75.86;100776.53;5036082;28;20057;-68
2022/05/27 06:57:40;;;;;;;8.00;2.22;;;;;;;11.78;75.71;100779.44;5037270;28;20080;-68
2022/05/27 07:00:10;;;;;;;17.23;2.65;;;;;;;11.97;74.73;100780.09;5036957;28;20096;-68
2022/05/27 07:02:36;;;;;;;7.88;2.33;;;;;;;12.15;73.28;100780.78;5037669;28;20049;-67
2022/05/27 07:05:03;;;;;;;10.35;2.45;;;;;;;12.02;73.41;100781.28;5036876;28;20072;-68
2022/05/27 07:07:31;;;;;;;9.82;2.40;;;;;;;12.06;72.27;100787.19;5036594;28;20128;-68
2022/05/27 07:09:58;;;;;;;5.82;2.13;;;;;;;12.26;72.28;100785.00;5035813;28;20141;-68
2022/05/27 07:12:24;;;;;;;9.02;3.00;;;;;;;12.41;71.89;100781.41;5035985;28;20140;-67
2022/05/27 07:14:51;;;;;;;5.47;1.88;;;;;;;12.43;70.51;100786.66;5035780;28;20049;-68
2022/05/27 07:17:17;;;;;;;10.82;2.50;;;;;;;12.57;69.54;100787.78;5035845;28;20049;-68
2022/05/27 07:19:44;;;;;;;10.57;2.17;;;;;;;12.79;68.82;100776.31;5018146;28;20119;-67
2022/05/27 07:22:11;;;;;;;14.80;2.55;;;;;;;12.32;69.37;100782.47;5035692;28;20096;-67
2022/05/27 07:24:39;;;;;;;10.48;2.70;;;;;;;12.44;68.11;100782.09;5035399;28;20050;-67
2022/05/27 07:27:06;;;;;;;7.82;1.60;;;;;;;12.53;67.36;100792.69;5035642;28;20069;-67
2022/05/27 07:29:32;;;;;;;9.07;2.67;;;;;;;12.86;64.32;100785.38;5035676;28;20456;-67
2022/05/27 07:31:59;;;;;;;5.43;1.80;;;;;;;12.73;64.45;100789.59;5035424;28;20085;-67
2022/05/27 07:34:25;;;;;;;9.27;2.20;;;;;;;12.98;62.24;100788.53;5035421;28;20093;-68
2022/05/27 07:36:52;;;;;;;11.90;2.22;;;;;;;12.97;63.66;100792.25;5035631;28;20481;-68
2022/05/27 07:39:18;;;;;;;11.15;2.75;;;;;;;13.08;62.14;100791.03;5035595;28;20103;-68
2022/05/27 07:41:45;;;;;;;10.55;2.30;;;;;;;13.09;61.40;100787.31;5035715;28;20386;-68
2022/05/27 07:44:11;;;;;;;7.72;2.28;;;;;;;13.21;60.18;100793.97;5035165;28;20132;-68
2022/05/27 07:46:39;;;;;;;8.40;2.40;;;;;;;13.13;59.33;100790.50;5035565;28;20464;-68
2022/05/27 07:49:07;;;;;;;12.77;2.45;;;;;;;13.49;57.82;100793.50;5035780;28;20071;-68
2022/05/27 07:51:53;;;;;;;12.02;3.45;;;;;;;13.55;57.51;100795.50;5035288;28;20053;-68
2022/05/27 07:54:19;;;;;;;12.35;4.93;;;;;;;13.51;59.10;100794.16;5034931;28;20232;-68
2022/05/27 07:56:46;;;;;;;13.23;3.00;;;;;;;13.39;54.82;100795.56;5034980;28;20454;-68
2022/05/27 07:59:12;;;;;;;8.32;2.15;;;;;;;12.97;52.37;100797.66;5034402;28;20053;-68
2022/05/27 08:01:40;;;;;;;12.13;2.25;;;;;;;13.21;50.49;100785.91;5034930;28;20446;-69
2022/05/27 08:04:08;;;;;;;8.80;2.17;;;;;;;13.48;48.65;100797.22;5034373;28;20111;-69
2022/05/27 08:06:34;;;;;;;8.38;2.20;;;;;;;13.20;48.97;100788.78;5034456;28;20115;-69
2022/05/27 08:09:08;;;;;;;12.05;2.30;;;;;;;13.39;48.57;100795.56;5034959;28;20053;-67
2022/05/27 08:11:34;;;;;;;10.48;2.50;;;;;;;13.97;47.40;100802.31;5034822;28;20059;-67
2022/05/27 08:14:01;;;;;;;13.98;2.20;;;;;;;14.00;46.26;100793.84;5034423;28;20079;-67
2022/05/27 08:16:30;;;;;;;9.07;2.60;;;;;;;14.24;46.72;100787.41;5035609;28;20045;-68
2022/05/27 08:18:56;;;;;;;14.13;2.22;;;;;;;14.40;45.68;100791.81;5035678;28;20499;-69
2022/05/27 08:21:25;;;;;;;12.10;2.17;;;;;;;14.13;44.96;100804.88;5035402;28;20059;-68
2022/05/27 08:23:52;;;;;;;17.13;2.40;;;;;;;13.63;45.47;100799.97;5034872;28;20096;-68
2022/05/27 08:26:18;;;;;;;11.57;2.50;;;;;;;13.75;45.21;100795.88;5034531;28;20391;-69
2022/05/27 08:28:45;;;;;;;14.27;2.72;;;;;;;13.43;46.71;100796.91;5035188;28;20136;-68
2022/05/27 08:31:13;;;;;;;12.98;2.50;;;;;;;14.32;43.87;100795.41;5034430;28;20136;-68
2022/05/27 08:39:12;;;;;;;13.48;2.13;;;;;;;15.68;40.89;100795.03;5034466;28;20056;-69
2022/05/27 08:41:53;;;;;;;9.15;2.42;;;;;;;15.65;41.64;100800.81;5034772;28;20581;-68
2022/05/27 08:45:03;;;;;;;12.77;2.40;;;;;;;16.26;40.14;100803.03;5034492;28;20084;-68
2022/05/27 08:47:47;;;;;;;11.43;2.67;;;;;;;16.75;38.87;100798.63;5033941;28;20121;-68
2022/05/27 08:50:29;;;;;;;13.00;2.72;;;;;;;16.00;41.08;100790.13;5034578;28;20049;-67
2022/05/27 08:53:21;;;;;;;9.63;2.40;;;;;;;15.53;42.28;100783.38;5034456;28;20413;-69
2022/05/27 09:01:34;;;;;;;15.52;2.42;;;;;;;14.70;43.57;100812.44;5034154;28;20045;-69
2022/05/27 09:04:13;;;;;;;11.10;1.92;;;;;;;15.35;42.28;100801.88;5034406;28;20077;-68
2022/05/27 09:06:50;;;;;;;11.82;1.95;;;;;;;15.57;41.51;100792.78;5034566;28;20063;-67
2022/05/27 09:09:25;;;;;;;11.60;2.10;;;;;;;15.04;40.97;100784.03;5034190;28;20045;-69
2022/05/27 09:12:03;;;;;;;11.05;1.92;;;;;;;15.81;39.70;100777.22;5034535;28;20083;-68
2022/05/27 09:14:31;;;;;;;7.97;2.42;;;;;;;15.78;39.78;100791.13;5034094;28;20140;-68
2022/05/27 09:17:04;;;;;;;9.32;2.72;;;;;;;15.80;39.53;100789.09;5034113;28;20501;-67
2022/05/27 09:20:07;;;;;;;10.68;2.25;;;;;;;16.54;36.49;100799.53;5034759;28;20524;-68
2022/05/27 09:22:53;;;;;;;11.85;2.28;;;;;;;15.53;38.27;100799.59;5034052;28;20084;-68
2022/05/27 09:25:28;;;;;;;10.10;2.13;;;;;;;15.36;38.12;100796.31;5033835;28;20133;-68
2022/05/27 09:28:20;;;;;;;10.07;2.25;;;;;;;15.73;36.53;100785.47;5034212;28;20128;-68
2022/05/27 09:30:47;;;;;;;9.57;2.00;;;;;;;16.03;36.31;100800.56;5033595;28;20145;-67
2022/05/27 09:33:20;;;;;;;10.68;2.47;;;;;;;15.70;36.66;100794.81;5033733;28;20410;-69
2022/05/27 09:35:54;;;;;;;10.82;2.50;;;;;;;15.15;37.56;100783.53;5033487;28;20132;-68
2022/05/27 09:38:25;;;;;;;12.55;2.25;;;;;;;14.94;38.08;100792.41;5033692;28;20156;-68
2022/05/27 09:40:54;;;;;;;11.05;2.95;;;;;;;15.16;38.32;100782.53;5033528;28;20124;-67
2022/05/27 09:43:37;;;;;;;18.92;3.22;;;;;;;14.78;38.92;100784.53;5034001;28;20129;-67
2022/05/27 09:46:07;;;;;;;8.35;2.22;;;;;;;14.29;39.80;100787.72;5033805;28;20049;-69
2022/05/27 09:48:33;;;;;;;12.82;2.58;;;;;;;14.45;39.33;100792.09;5033824;28;20413;-69
2022/05/27 09:51:03;;;;;;;15.35;2.38;;;;;;;15.19;37.89;100787.56;5033935;28;20136;-69
2022/05/27 09:53:37;;;;;;;7.85;2.15;;;;;;;15.94;37.04;100785.47;5033579;28;20049;-68
2022/05/27 09:56:07;;;;;;;11.13;2.58;;;;;;;16.84;35.70;100792.00;5033515;28;20060;-68
2022/05/27 09:58:40;;;;;;;10.93;2.55;;;;;;;17.71;34.18;100785.06;5033501;28;20084;-68
2022/05/27 10:01:26;;;;;;;9.88;2.58;;;;;;;18.17;34.31;100784.31;5032928;28;20053;-68
2022/05/27 10:04:07;;;;;;;12.52;2.72;;;;;;;19.15;32.24;100784.34;5033179;28;20144;-68
2022/05/27 10:06:36;;;;;;;9.30;2.65;;;;;;;18.64;31.61;100782.38;5033373;28;20088;-68
2022/05/27 10:09:08;;;;;;;7.90;1.85;;;;;;;19.06;31.11;100764.72;5033304;28;20144;-67
2022/05/27 10:11:47;;;;;;;9.40;2.63;;;;;;;18.72;31.81;100765.84;5032921;28;20442;-68
2022/05/27 10:14:22;;;;;;;10.07;2.97;;;;;;;18.64;31.56;100774.22;5033186;28;20486;-68
2022/05/27 10:17:08;;;;;;;11.25;2.97;;;;;;;17.89;32.16;100779.03;5033747;28;20081;-68
2022/05/27 10:19:47;;;;;;;12.50;2.78;;;;;;;16.74;34.39;100777.97;5034097;28;20523;-68
2022/05/27 10:22:25;;;;;;;8.90;2.42;;;;;;;16.47;35.05;100791.34;5016740;28;20054;-67
2022/05/27 10:25:02;;;;;;;8.75;2.55;;;;;;;16.94;34.84;100792.47;5034051;28;20058;-68
2022/05/27 10:27:34;;;;;;;10.63;2.78;;;;;;;16.40;34.96;100787.72;5033717;28;20076;-68
2022/05/27 10:30:06;;;;;;;8.80;2.38;;;;;;;16.09;35.78;100794.38;5036282;28;20457;-68
2022/05/27 10:32:43;;;;;;;11.88;2.20;;;;;;;16.58;35.68;100793.53;5037018;28;20060;-68
2022/05/27 10:35:27;;;;;;;13.80;2.67;;;;;;;16.03;36.51;100786.19;5037087;28;20051;-68
2022/05/27 10:38:25;;;;;;;15.55;2.80;;;;;;;15.88;36.64;100780.84;5036977;28;20505;-68
2022/05/27 10:41:19;;;;;;;18.77;3.20;;;;;;;15.85;36.13;100790.19;5036455;28;20140;-67
2022/05/27 10:44:13;;;;;;;11.40;2.50;;;;;;;15.94;37.38;100788.19;5036403;28;20489;-67
2022/05/27 10:46:53;;;;;;;15.45;2.67;;;;;;;16.18;36.85;100785.06;5036591;28;20045;-69
2022/05/27 10:49:22;;;;;;;11.60;2.67;;;;;;;16.36;36.86;100784.56;5036924;28;20045;-68
2022/05/27 10:52:33;;;;;;;12.85;2.47;;;;;;;16.53;36.25;100777.03;5041453;28;20053;-68
2022/05/27 10:55:21;;;;;;;11.75;2.20;;;;;;;16.90;34.95;100761.41;5022787;28;20168;-68
2022/05/27 11:04:48;;;;;;;10.18;2.55;;;;;;;16.42;35.35;100756.72;5036247;28;20050;-68
2022/05/27 11:07:38;;;;;;;11.07;2.65;;;;;;;16.61;34.76;100754.38;5036110;28;20532;-68
2022/05/27 11:10:22;;;;;;;12.48;2.33;;;;;;;16.04;36.26;100758.94;5036288;28;20454;-68
2022/05/27 11:16:24;;;;;;;13.95;2.35;;;;;;;15.12;36.42;100769.56;5036396;28;20144;-68
2022/05/27 11:19:34;;;;;;;14.80;2.60;;;;;;;14.86;36.18;100772.78;5036365;28;20446;-68
2022/05/27 11:22:17;;;;;;;8.70;2.65;;;;;;;14.67;36.58;100775.00;5036081;28;20085;-68
2022/05/27 11:25:11;;;;;;;14.90;2.72;;;;;;;14.87;36.73;100779.84;5035680;28;20064;-68
2022/05/27 11:28:04;;;;;;;17.08;2.45;;;;;;;15.53;35.56;100750.91;5036044;28;20045;-68
2022/05/27 11:30:44;;;;;;;11.00;2.00;;;;;;;16.23;34.90;100753.84;5036286;28;20107;-67
2022/05/27 11:33:39;;;;;;;14.88;4.90;;;;;;;16.31;34.78;100745.59;5036301;28;20144;-68
2022/05/27 11:36:27;;;;;;;14.68;4.13;;;;;;;16.34;34.61;100745.22;5036046;28;20046;-68
2022/05/27 11:39:23;;;;;;;8.95;2.47;;;;;;;16.13;34.72;100733.41;5035747;28;20057;-70
2022/05/27 11:42:04;;;;;;;15.05;2.63;;;;;;;15.71;35.72;100729.72;5035455;28;20096;-70
2022/05/27 11:44:49;;;;;;;12.60;3.08;;;;;;;15.55;37.00;100729.13;5035504;28;20099;-70
2022/05/27 11:47:25;;;;;;;15.20;2.40;;;;;;;15.39;37.03;100735.59;5035722;28;20128;-71
2022/05/27 11:50:21;;;;;;;10.18;2.10;;;;;;;14.64;38.65;100739.44;5035830;28;20069;-70
2022/05/27 11:52:56;;;;;;;9.13;2.33;;;;;;;14.79;41.27;100747.56;5035464;28;20061;-70
2022/05/27 11:55:43;;;;;;;9.07;2.67;;;;;;;14.63;41.78;100751.25;5035046;28;20077;-70
2022/05/27 11:58:16;;;;;;;7.78;2.10;;;;;;;14.85;42.32;100761.16;5035291;28;20144;-71
2022/05/27 12:01:04;;;;;;;14.80;2.88;;;;;;;14.63;43.12;100751.25;5041707;28;20117;-69
2022/05/27 12:03:43;;;;;;;9.82;2.67;;;;;;;14.52;42.73;100755.25;5035239;28;20144;-68
2022/05/27 12:06:18;;;;;;;14.35;2.85;;;;;;;14.41;43.86;100758.41;5035261;28;20046;-69
2022/05/27 12:08:56;;;;;;;12.23;2.90;;;;;;;14.37;44.38;100749.00;5035024;28;20093;-68
2022/05/27 12:11:59;;;;;;;11.77;2.63;;;;;;;14.32;44.20;100743.31;5035034;28;20049;-68
2022/05/27 12:14:38;;;;;;;14.13;2.40;;;;;;;14.34;44.16;100742.09;4954844;29;20459;-68
2022/05/27 12:17:14;;;;;;;8.98;2.15;;;;;;;14.46;43.28;100728.97;4955539;28;20150;-67
2022/05/27 12:19:48;;;;;;;10.88;3.15;;;;;;;14.63;43.12;100721.53;4954456;29;20098;-68
2022/05/27 12:22:27;;;;;;;13.55;2.75;;;;;;;14.38;43.12;100721.81;4954276;29;20062;-68
2022/05/27 12:24:58;;;;;;;7.53;2.25;;;;;;;14.38;40.35;100716.41;4954321;29;20503;-69
2022/05/27 12:27:25;;;;;;;11.00;2.20;;;;;;;14.46;40.84;100719.06;4954363;29;20130;-68
2022/05/27 12:29:52;;;;;;;10.90;2.80;;;;;;;14.50;40.57;100709.56;4954655;29;20051;-68